sensor_id;sensor_type;location;lat;lon;timestamp;P1;durP1;ratioP1;P2;durP2;ratioP2
69779;SDS011;57052;55.602;38.096;2023-04-24T00:00:09;41.38;;;14.65;;
69779;SDS011;57052;55.602;38.096;2023-04-24T00:02:35;44.08;;;14.02;;
69779;SDS011;57052;55.602;38.096;2023-04-24T00:05:05;34.40;;;10.73;;
69779;SDS011;57052;55.602;38.096;2023-04-24T00:07:32;29.85;;;11.43;;
69779;SDS011;57052;55.602;38.096;2023-04-24T00:09:57;32.17;;;11.88;;
69779;SDS011;57052;55.602;38.096;2023-04-24T00:12:24;37.65;;;12.68;;
69779;SDS011;57052;55.602;38.096;2023-04-24T00:14:50;35.83;;;12.73;;
69779;SDS011;57052;55.602;38.096;2023-04-24T00:17:16;36.45;;;12.30;;
69779;SDS011;57052;55.602;38.096;2023-04-24T00:19:45;34.15;;;11.80;;
69779;SDS011;57052;55.602;38.096;2023-04-24T00:22:16;38.00;;;11.65;;
69779;SDS011;57052;55.602;38.096;2023-04-24T00:24:43;27.92;;;9.75;;
69779;SDS011;57052;55.602;38.096;2023-04-24T00:27:08;21.95;;;8.60;;
69779;SDS011;57052;55.602;38.096;2023-04-24T00:29:34;19.00;;;8.98;;
69779;SDS011;57052;55.602;38.096;2023-04-24T00:32:00;20.05;;;8.43;;
69779;SDS011;57052;55.602;38.096;2023-04-24T00:34:25;28.55;;;8.77;;
69779;SDS011;57052;55.602;38.096;2023-04-24T00:36:51;18.50;;;7.57;;
69779;SDS011;57052;55.602;38.096;2023-04-24T00:39:18;18.63;;;8.20;;
69779;SDS011;57052;55.602;38.096;2023-04-24T00:41:44;16.58;;;7.75;;
69779;SDS011;57052;55.602;38.096;2023-04-24T00:44:10;16.15;;;8.15;;
69779;SDS011;57052;55.602;38.096;2023-04-24T00:46:36;20.10;;;9.25;;
69779;SDS011;57052;55.602;38.096;2023-04-24T00:49:02;19.98;;;7.63;;
69779;SDS011;57052;55.602;38.096;2023-04-24T00:51:30;16.88;;;8.50;;
69779;SDS011;57052;55.602;38.096;2023-04-24T00:53:58;15.30;;;8.90;;
69779;SDS011;57052;55.602;38.096;2023-04-24T00:56:24;16.27;;;8.07;;
69779;SDS011;57052;55.602;38.096;2023-04-24T00:58:50;20.15;;;9.48;;
69779;SDS011;57052;55.602;38.096;2023-04-24T01:01:16;18.67;;;8.38;;
69779;SDS011;57052;55.602;38.096;2023-04-24T01:03:46;17.25;;;8.55;;
69779;SDS011;57052;55.602;38.096;2023-04-24T01:06:12;17.02;;;8.85;;
69779;SDS011;57052;55.602;38.096;2023-04-24T01:08:39;21.33;;;8.70;;
69779;SDS011;57052;55.602;38.096;2023-04-24T01:11:06;21.17;;;8.93;;
69779;SDS011;57052;55.602;38.096;2023-04-24T01:13:32;17.85;;;8.95;;
69779;SDS011;57052;55.602;38.096;2023-04-24T01:15:59;17.98;;;8.85;;
69779;SDS011;57052;55.602;38.096;2023-04-24T01:18:26;19.73;;;8.95;;
69779;SDS011;57052;55.602;38.096;2023-04-24T01:20:53;22.30;;;9.07;;
69779;SDS011;57052;55.602;38.096;2023-04-24T01:23:21;15.75;;;8.93;;
69779;SDS011;57052;55.602;38.096;2023-04-24T01:25:48;21.23;;;8.70;;
69779;SDS011;57052;55.602;38.096;2023-04-24T01:28:14;18.95;;;8.43;;
69779;SDS011;57052;55.602;38.096;2023-04-24T01:30:41;18.55;;;8.02;;
69779;SDS011;57052;55.602;38.096;2023-04-24T01:33:07;16.80;;;8.52;;
69779;SDS011;57052;55.602;38.096;2023-04-24T01:35:32;19.15;;;8.60;;
69779;SDS011;57052;55.602;38.096;2023-04-24T01:37:58;20.10;;;8.60;;
69779;SDS011;57052;55.602;38.096;2023-04-24T01:40:24;17.42;;;8.18;;
69779;SDS011;57052;55.602;38.096;2023-04-24T01:42:50;20.17;;;9.48;;
69779;SDS011;57052;55.602;38.096;2023-04-24T01:45:16;23.65;;;8.80;;
69779;SDS011;57052;55.602;38.096;2023-04-24T01:47:41;16.30;;;8.57;;
69779;SDS011;57052;55.602;38.096;2023-04-24T01:50:07;17.92;;;9.07;;
69779;SDS011;57052;55.602;38.096;2023-04-24T01:52:33;18.38;;;8.95;;
69779;SDS011;57052;55.602;38.096;2023-04-24T01:55:01;15.20;;;8.68;;
69779;SDS011;57052;55.602;38.096;2023-04-24T01:57:30;19.35;;;8.25;;
69779;SDS011;57052;55.602;38.096;2023-04-24T01:59:57;17.88;;;8.25;;
69779;SDS011;57052;55.602;38.096;2023-04-24T02:02:22;18.50;;;8.63;;
69779;SDS011;57052;55.602;38.096;2023-04-24T02:04:55;18.77;;;8.98;;
69779;SDS011;57052;55.602;38.096;2023-04-24T02:07:21;20.67;;;8.77;;
69779;SDS011;57052;55.602;38.096;2023-04-24T02:09:46;19.90;;;8.93;;
69779;SDS011;57052;55.602;38.096;2023-04-24T02:12:12;22.58;;;9.40;;
69779;SDS011;57052;55.602;38.096;2023-04-24T02:14:38;17.08;;;8.50;;
69779;SDS011;57052;55.602;38.096;2023-04-24T02:17:04;21.15;;;8.70;;
69779;SDS011;57052;55.602;38.096;2023-04-24T02:19:30;22.50;;;9.18;;
69779;SDS011;57052;55.602;38.096;2023-04-24T02:21:56;19.90;;;8.90;;
69779;SDS011;57052;55.602;38.096;2023-04-24T02:24:22;20.90;;;10.00;;
69779;SDS011;57052;55.602;38.096;2023-04-24T02:26:47;28.63;;;10.82;;
69779;SDS011;57052;55.602;38.096;2023-04-24T02:29:13;35.95;;;12.10;;
69779;SDS011;57052;55.602;38.096;2023-04-24T02:31:39;34.08;;;12.73;;
69779;SDS011;57052;55.602;38.096;2023-04-24T02:34:05;29.77;;;13.00;;
69779;SDS011;57052;55.602;38.096;2023-04-24T02:36:31;36.63;;;13.73;;
69779;SDS011;57052;55.602;38.096;2023-04-24T02:38:56;30.92;;;12.63;;
69779;SDS011;57052;55.602;38.096;2023-04-24T02:41:22;36.20;;;12.75;;
69779;SDS011;57052;55.602;38.096;2023-04-24T02:43:48;33.95;;;12.32;;
69779;SDS011;57052;55.602;38.096;2023-04-24T02:46:13;33.22;;;12.52;;
69779;SDS011;57052;55.602;38.096;2023-04-24T02:48:39;25.80;;;12.05;;
69779;SDS011;57052;55.602;38.096;2023-04-24T02:51:05;31.85;;;12.23;;
69779;SDS011;57052;55.602;38.096;2023-04-24T02:53:31;29.65;;;11.52;;
69779;SDS011;57052;55.602;38.096;2023-04-24T02:55:58;28.67;;;11.70;;
69779;SDS011;57052;55.602;38.096;2023-04-24T02:58:24;40.00;;;13.57;;
69779;SDS011;57052;55.602;38.096;2023-04-24T03:00:53;37.47;;;11.63;;
69779;SDS011;57052;55.602;38.096;2023-04-24T03:03:20;29.60;;;12.43;;
69779;SDS011;57052;55.602;38.096;2023-04-24T03:05:46;32.17;;;11.73;;
69779;SDS011;57052;55.602;38.096;2023-04-24T03:08:12;36.58;;;13.27;;
69779;SDS011;57052;55.602;38.096;2023-04-24T03:10:37;28.77;;;11.63;;
69779;SDS011;57052;55.602;38.096;2023-04-24T03:13:03;29.88;;;11.63;;
69779;SDS011;57052;55.602;38.096;2023-04-24T03:15:29;27.08;;;10.75;;
69779;SDS011;57052;55.602;38.096;2023-04-24T03:17:54;23.83;;;11.15;;
69779;SDS011;57052;55.602;38.096;2023-04-24T03:20:20;29.52;;;10.48;;
69779;SDS011;57052;55.602;38.096;2023-04-24T03:22:46;26.45;;;11.27;;
69779;SDS011;57052;55.602;38.096;2023-04-24T03:25:12;30.73;;;11.27;;
69779;SDS011;57052;55.602;38.096;2023-04-24T03:27:38;31.15;;;11.40;;
69779;SDS011;57052;55.602;38.096;2023-04-24T03:30:05;28.38;;;10.60;;
69779;SDS011;57052;55.602;38.096;2023-04-24T03:32:32;29.52;;;11.20;;
69779;SDS011;57052;55.602;38.096;2023-04-24T03:34:57;26.40;;;10.90;;
69779;SDS011;57052;55.602;38.096;2023-04-24T03:37:23;19.92;;;10.50;;
69779;SDS011;57052;55.602;38.096;2023-04-24T03:39:48;22.33;;;9.90;;
69779;SDS011;57052;55.602;38.096;2023-04-24T03:42:14;25.58;;;10.48;;
69779;SDS011;57052;55.602;38.096;2023-04-24T03:44:40;25.15;;;11.07;;
69779;SDS011;57052;55.602;38.096;2023-04-24T03:47:06;25.80;;;10.60;;
69779;SDS011;57052;55.602;38.096;2023-04-24T03:49:31;24.20;;;10.63;;
69779;SDS011;57052;55.602;38.096;2023-04-24T03:51:57;23.63;;;11.13;;
69779;SDS011;57052;55.602;38.096;2023-04-24T03:54:22;22.27;;;10.63;;
69779;SDS011;57052;55.602;38.096;2023-04-24T03:56:48;22.85;;;10.77;;
69779;SDS011;57052;55.602;38.096;2023-04-24T03:59:14;23.77;;;11.25;;
69779;SDS011;57052;55.602;38.096;2023-04-24T04:01:40;25.20;;;10.23;;
69779;SDS011;57052;55.602;38.096;2023-04-24T04:04:05;19.90;;;10.50;;
69779;SDS011;57052;55.602;38.096;2023-04-24T04:06:32;22.23;;;11.00;;
69779;SDS011;57052;55.602;38.096;2023-04-24T04:08:58;22.27;;;11.00;;
69779;SDS011;57052;55.602;38.096;2023-04-24T04:11:25;27.40;;;11.45;;
69779;SDS011;57052;55.602;38.096;2023-04-24T04:13:51;24.85;;;11.38;;
69779;SDS011;57052;55.602;38.096;2023-04-24T04:16:17;24.50;;;11.52;;
69779;SDS011;57052;55.602;38.096;2023-04-24T04:18:43;25.85;;;13.10;;
69779;SDS011;57052;55.602;38.096;2023-04-24T04:21:09;20.92;;;11.38;;
69779;SDS011;57052;55.602;38.096;2023-04-24T04:23:35;29.52;;;11.48;;
69779;SDS011;57052;55.602;38.096;2023-04-24T04:26:01;21.58;;;11.13;;
69779;SDS011;57052;55.602;38.096;2023-04-24T04:28:27;28.73;;;11.07;;
69779;SDS011;57052;55.602;38.096;2023-04-24T04:30:52;25.58;;;11.25;;
69779;SDS011;57052;55.602;38.096;2023-04-24T04:33:23;19.50;;;9.80;;
69779;SDS011;57052;55.602;38.096;2023-04-24T04:35:49;16.77;;;10.60;;
69779;SDS011;57052;55.602;38.096;2023-04-24T04:38:17;27.77;;;10.98;;
69779;SDS011;57052;55.602;38.096;2023-04-24T04:40:44;20.73;;;10.73;;
69779;SDS011;57052;55.602;38.096;2023-04-24T04:43:10;24.17;;;11.30;;
69779;SDS011;57052;55.602;38.096;2023-04-24T04:45:36;21.85;;;10.63;;
69779;SDS011;57052;55.602;38.096;2023-04-24T04:48:04;28.83;;;10.50;;
69779;SDS011;57052;55.602;38.096;2023-04-24T04:50:29;17.00;;;10.07;;
69779;SDS011;57052;55.602;38.096;2023-04-24T04:52:55;23.98;;;9.93;;
69779;SDS011;57052;55.602;38.096;2023-04-24T04:55:21;22.80;;;10.35;;
69779;SDS011;57052;55.602;38.096;2023-04-24T04:57:47;18.88;;;9.30;;
69779;SDS011;57052;55.602;38.096;2023-04-24T05:00:12;18.35;;;9.50;;
69779;SDS011;57052;55.602;38.096;2023-04-24T05:02:39;18.60;;;9.65;;
69779;SDS011;57052;55.602;38.096;2023-04-24T05:05:05;23.17;;;9.38;;
69779;SDS011;57052;55.602;38.096;2023-04-24T05:07:31;24.73;;;9.60;;
69779;SDS011;57052;55.602;38.096;2023-04-24T05:09:57;20.98;;;10.05;;
69779;SDS011;57052;55.602;38.096;2023-04-24T05:12:23;21.40;;;9.85;;
69779;SDS011;57052;55.602;38.096;2023-04-24T05:14:48;19.67;;;10.10;;
69779;SDS011;57052;55.602;38.096;2023-04-24T05:17:14;19.70;;;9.65;;
69779;SDS011;57052;55.602;38.096;2023-04-24T05:19:40;18.23;;;9.45;;
69779;SDS011;57052;55.602;38.096;2023-04-24T05:22:06;22.10;;;9.45;;
69779;SDS011;57052;55.602;38.096;2023-04-24T05:24:32;17.08;;;9.00;;
69779;SDS011;57052;55.602;38.096;2023-04-24T05:26:59;20.05;;;9.05;;
69779;SDS011;57052;55.602;38.096;2023-04-24T05:29:25;19.48;;;8.80;;
69779;SDS011;57052;55.602;38.096;2023-04-24T05:31:51;16.42;;;8.63;;
69779;SDS011;57052;55.602;38.096;2023-04-24T05:34:17;19.73;;;8.52;;
69779;SDS011;57052;55.602;38.096;2023-04-24T05:36:43;18.90;;;8.85;;
69779;SDS011;57052;55.602;38.096;2023-04-24T05:39:09;13.88;;;8.02;;
69779;SDS011;57052;55.602;38.096;2023-04-24T05:41:35;17.63;;;8.15;;
69779;SDS011;57052;55.602;38.096;2023-04-24T05:44:00;17.77;;;8.55;;
69779;SDS011;57052;55.602;38.096;2023-04-24T05:46:26;16.02;;;8.18;;
69779;SDS011;57052;55.602;38.096;2023-04-24T05:48:52;17.90;;;8.15;;
69779;SDS011;57052;55.602;38.096;2023-04-24T05:51:17;19.88;;;7.88;;
69779;SDS011;57052;55.602;38.096;2023-04-24T05:53:43;14.63;;;7.07;;
69779;SDS011;57052;55.602;38.096;2023-04-24T05:56:09;16.02;;;7.38;;
69779;SDS011;57052;55.602;38.096;2023-04-24T05:58:34;12.68;;;7.35;;
69779;SDS011;57052;55.602;38.096;2023-04-24T06:01:00;15.55;;;8.15;;
69779;SDS011;57052;55.602;38.096;2023-04-24T06:03:27;20.92;;;7.53;;
69779;SDS011;57052;55.602;38.096;2023-04-24T06:05:53;12.98;;;7.30;;
69779;SDS011;57052;55.602;38.096;2023-04-24T06:08:19;17.00;;;6.68;;
69779;SDS011;57052;55.602;38.096;2023-04-24T06:10:44;14.77;;;7.40;;
69779;SDS011;57052;55.602;38.096;2023-04-24T06:13:10;14.52;;;8.25;;
69779;SDS011;57052;55.602;38.096;2023-04-24T06:15:37;15.73;;;7.53;;
69779;SDS011;57052;55.602;38.096;2023-04-24T06:18:03;17.35;;;7.10;;
69779;SDS011;57052;55.602;38.096;2023-04-24T06:20:29;13.82;;;7.95;;
69779;SDS011;57052;55.602;38.096;2023-04-24T06:22:55;16.13;;;7.78;;
69779;SDS011;57052;55.602;38.096;2023-04-24T06:25:20;10.00;;;5.93;;
69779;SDS011;57052;55.602;38.096;2023-04-24T06:27:46;14.48;;;6.97;;
69779;SDS011;57052;55.602;38.096;2023-04-24T06:30:12;14.55;;;5.82;;
69779;SDS011;57052;55.602;38.096;2023-04-24T06:32:38;10.57;;;5.40;;
69779;SDS011;57052;55.602;38.096;2023-04-24T06:35:05;10.75;;;5.65;;
69779;SDS011;57052;55.602;38.096;2023-04-24T06:37:33;11.88;;;6.28;;
69779;SDS011;57052;55.602;38.096;2023-04-24T06:39:58;12.55;;;5.50;;
69779;SDS011;57052;55.602;38.096;2023-04-24T06:42:24;9.98;;;5.00;;
69779;SDS011;57052;55.602;38.096;2023-04-24T06:44:50;10.23;;;5.30;;
69779;SDS011;57052;55.602;38.096;2023-04-24T06:47:16;11.15;;;4.80;;
69779;SDS011;57052;55.602;38.096;2023-04-24T06:49:42;11.77;;;4.82;;
69779;SDS011;57052;55.602;38.096;2023-04-24T06:52:07;8.13;;;4.20;;
69779;SDS011;57052;55.602;38.096;2023-04-24T06:54:33;8.80;;;4.53;;
69779;SDS011;57052;55.602;38.096;2023-04-24T06:56:59;10.18;;;4.40;;
69779;SDS011;57052;55.602;38.096;2023-04-24T06:59:26;9.77;;;4.10;;
69779;SDS011;57052;55.602;38.096;2023-04-24T07:01:52;8.98;;;3.78;;
69779;SDS011;57052;55.602;38.096;2023-04-24T07:04:18;7.53;;;4.43;;
69779;SDS011;57052;55.602;38.096;2023-04-24T07:06:47;8.57;;;4.30;;
69779;SDS011;57052;55.602;38.096;2023-04-24T07:09:14;7.50;;;3.70;;
69779;SDS011;57052;55.602;38.096;2023-04-24T07:11:44;10.35;;;4.00;;
69779;SDS011;57052;55.602;38.096;2023-04-24T07:14:11;10.68;;;4.63;;
69779;SDS011;57052;55.602;38.096;2023-04-24T07:16:37;9.25;;;4.60;;
69779;SDS011;57052;55.602;38.096;2023-04-24T07:19:03;6.05;;;3.17;;
69779;SDS011;57052;55.602;38.096;2023-04-24T07:21:29;7.88;;;3.28;;
69779;SDS011;57052;55.602;38.096;2023-04-24T07:23:56;9.40;;;3.30;;
69779;SDS011;57052;55.602;38.096;2023-04-24T07:26:21;12.02;;;3.83;;
69779;SDS011;57052;55.602;38.096;2023-04-24T07:28:47;9.35;;;3.70;;
69779;SDS011;57052;55.602;38.096;2023-04-24T07:31:13;9.10;;;3.35;;
69779;SDS011;57052;55.602;38.096;2023-04-24T07:33:38;7.22;;;3.67;;
69779;SDS011;57052;55.602;38.096;2023-04-24T07:36:04;5.70;;;3.63;;
69779;SDS011;57052;55.602;38.096;2023-04-24T07:38:30;6.65;;;3.38;;
69779;SDS011;57052;55.602;38.096;2023-04-24T07:40:56;6.53;;;3.83;;
69779;SDS011;57052;55.602;38.096;2023-04-24T07:43:22;7.95;;;3.63;;
69779;SDS011;57052;55.602;38.096;2023-04-24T07:45:51;11.82;;;3.88;;
69779;SDS011;57052;55.602;38.096;2023-04-24T07:48:17;6.55;;;3.63;;
69779;SDS011;57052;55.602;38.096;2023-04-24T07:50:44;7.40;;;3.90;;
69779;SDS011;57052;55.602;38.096;2023-04-24T07:53:10;11.77;;;4.18;;
69779;SDS011;57052;55.602;38.096;2023-04-24T07:55:36;6.78;;;4.40;;
69779;SDS011;57052;55.602;38.096;2023-04-24T07:58:01;7.88;;;4.03;;
69779;SDS011;57052;55.602;38.096;2023-04-24T08:00:27;5.35;;;3.70;;
69779;SDS011;57052;55.602;38.096;2023-04-24T08:02:53;6.32;;;3.88;;
69779;SDS011;57052;55.602;38.096;2023-04-24T08:05:19;5.97;;;3.75;;
69779;SDS011;57052;55.602;38.096;2023-04-24T08:07:45;7.30;;;4.10;;
69779;SDS011;57052;55.602;38.096;2023-04-24T08:10:14;12.55;;;3.70;;
69779;SDS011;57052;55.602;38.096;2023-04-24T08:12:40;6.63;;;3.75;;
69779;SDS011;57052;55.602;38.096;2023-04-24T08:15:06;6.47;;;3.83;;
69779;SDS011;57052;55.602;38.096;2023-04-24T08:17:34;8.32;;;4.80;;
69779;SDS011;57052;55.602;38.096;2023-04-24T08:20:00;5.28;;;3.67;;
69779;SDS011;57052;55.602;38.096;2023-04-24T08:22:32;7.18;;;3.95;;
69779;SDS011;57052;55.602;38.096;2023-04-24T08:24:59;7.18;;;3.85;;
69779;SDS011;57052;55.602;38.096;2023-04-24T08:27:26;5.63;;;3.63;;
69779;SDS011;57052;55.602;38.096;2023-04-24T08:29:56;7.22;;;3.88;;
69779;SDS011;57052;55.602;38.096;2023-04-24T08:32:23;6.20;;;3.80;;
69779;SDS011;57052;55.602;38.096;2023-04-24T08:34:49;5.93;;;3.50;;
69779;SDS011;57052;55.602;38.096;2023-04-24T08:37:17;5.35;;;3.45;;
69779;SDS011;57052;55.602;38.096;2023-04-24T08:39:43;10.13;;;4.25;;
69779;SDS011;57052;55.602;38.096;2023-04-24T08:42:09;9.38;;;4.22;;
69779;SDS011;57052;55.602;38.096;2023-04-24T08:44:38;6.53;;;3.65;;
69779;SDS011;57052;55.602;38.096;2023-04-24T08:47:03;9.88;;;3.47;;
69779;SDS011;57052;55.602;38.096;2023-04-24T08:49:30;7.57;;;3.67;;
69779;SDS011;57052;55.602;38.096;2023-04-24T08:51:56;7.75;;;3.75;;
69779;SDS011;57052;55.602;38.096;2023-04-24T08:54:22;10.90;;;3.70;;
69779;SDS011;57052;55.602;38.096;2023-04-24T08:56:48;4.28;;;3.00;;
69779;SDS011;57052;55.602;38.096;2023-04-24T08:59:14;10.30;;;3.47;;
69779;SDS011;57052;55.602;38.096;2023-04-24T09:01:41;6.38;;;3.40;;
69779;SDS011;57052;55.602;38.096;2023-04-24T09:04:08;8.52;;;3.55;;
69779;SDS011;57052;55.602;38.096;2023-04-24T09:06:39;6.43;;;3.95;;
69779;SDS011;57052;55.602;38.096;2023-04-24T09:09:06;6.60;;;3.42;;
69779;SDS011;57052;55.602;38.096;2023-04-24T09:11:33;6.65;;;3.97;;
69779;SDS011;57052;55.602;38.096;2023-04-24T09:13:59;6.07;;;3.40;;
69779;SDS011;57052;55.602;38.096;2023-04-24T09:16:26;4.85;;;3.20;;
69779;SDS011;57052;55.602;38.096;2023-04-24T09:18:52;7.18;;;3.30;;
69779;SDS011;57052;55.602;38.096;2023-04-24T09:21:19;5.97;;;3.33;;
69779;SDS011;57052;55.602;38.096;2023-04-24T09:23:46;8.65;;;3.60;;
69779;SDS011;57052;55.602;38.096;2023-04-24T09:26:12;5.07;;;3.30;;
69779;SDS011;57052;55.602;38.096;2023-04-24T09:28:40;6.32;;;3.28;;
69779;SDS011;57052;55.602;38.096;2023-04-24T09:31:07;8.00;;;3.33;;
69779;SDS011;57052;55.602;38.096;2023-04-24T09:33:33;5.68;;;3.20;;
69779;SDS011;57052;55.602;38.096;2023-04-24T09:35:59;5.93;;;3.20;;
69779;SDS011;57052;55.602;38.096;2023-04-24T09:38:32;7.50;;;3.10;;
69779;SDS011;57052;55.602;38.096;2023-04-24T09:41:02;5.22;;;3.25;;
69779;SDS011;57052;55.602;38.096;2023-04-24T09:43:30;6.75;;;3.50;;
69779;SDS011;57052;55.602;38.096;2023-04-24T09:45:56;6.05;;;3.25;;
69779;SDS011;57052;55.602;38.096;2023-04-24T09:48:30;7.00;;;3.40;;
69779;SDS011;57052;55.602;38.096;2023-04-24T09:51:01;6.07;;;3.33;;
69779;SDS011;57052;55.602;38.096;2023-04-24T09:53:28;6.53;;;3.58;;
69779;SDS011;57052;55.602;38.096;2023-04-24T09:55:55;10.07;;;3.50;;
69779;SDS011;57052;55.602;38.096;2023-04-24T09:58:28;7.45;;;3.30;;
69779;SDS011;57052;55.602;38.096;2023-04-24T10:00:55;8.60;;;3.40;;
69779;SDS011;57052;55.602;38.096;2023-04-24T10:03:25;5.95;;;3.10;;
69779;SDS011;57052;55.602;38.096;2023-04-24T10:05:54;6.38;;;3.30;;
69779;SDS011;57052;55.602;38.096;2023-04-24T10:08:24;5.38;;;3.60;;
69779;SDS011;57052;55.602;38.096;2023-04-24T10:10:51;7.00;;;3.28;;
69779;SDS011;57052;55.602;38.096;2023-04-24T10:13:17;6.10;;;3.90;;
69779;SDS011;57052;55.602;38.096;2023-04-24T10:15:43;6.13;;;3.40;;
69779;SDS011;57052;55.602;38.096;2023-04-24T10:18:09;4.40;;;2.80;;
69779;SDS011;57052;55.602;38.096;2023-04-24T10:20:37;8.48;;;3.22;;
69779;SDS011;57052;55.602;38.096;2023-04-24T10:23:04;6.90;;;3.70;;
69779;SDS011;57052;55.602;38.096;2023-04-24T10:25:31;10.38;;;3.13;;
69779;SDS011;57052;55.602;38.096;2023-04-24T10:27:59;4.03;;;2.80;;
69779;SDS011;57052;55.602;38.096;2023-04-24T10:30:27;5.93;;;2.90;;
69779;SDS011;57052;55.602;38.096;2023-04-24T10:32:54;5.38;;;3.33;;
69779;SDS011;57052;55.602;38.096;2023-04-24T10:35:20;4.18;;;3.03;;
69779;SDS011;57052;55.602;38.096;2023-04-24T10:37:52;4.93;;;2.65;;
69779;SDS011;57052;55.602;38.096;2023-04-24T10:40:30;8.27;;;3.33;;
69779;SDS011;57052;55.602;38.096;2023-04-24T10:42:58;5.22;;;2.90;;
69779;SDS011;57052;55.602;38.096;2023-04-24T10:45:23;5.80;;;2.97;;
69779;SDS011;57052;55.602;38.096;2023-04-24T10:47:57;9.98;;;2.80;;
69779;SDS011;57052;55.602;38.096;2023-04-24T10:50:26;8.20;;;2.85;;
69779;SDS011;57052;55.602;38.096;2023-04-24T10:53:12;6.63;;;3.05;;
69779;SDS011;57052;55.602;38.096;2023-04-24T10:55:47;5.18;;;2.78;;
69779;SDS011;57052;55.602;38.096;2023-04-24T10:58:15;9.23;;;2.90;;
69779;SDS011;57052;55.602;38.096;2023-04-24T11:00:42;5.45;;;3.00;;
69779;SDS011;57052;55.602;38.096;2023-04-24T11:03:23;5.45;;;3.15;;
69779;SDS011;57052;55.602;38.096;2023-04-24T11:05:50;5.88;;;2.78;;
69779;SDS011;57052;55.602;38.096;2023-04-24T11:08:31;8.55;;;2.90;;
69779;SDS011;57052;55.602;38.096;2023-04-24T11:11:06;10.18;;;3.22;;
69779;SDS011;57052;55.602;38.096;2023-04-24T11:16:20;6.15;;;3.00;;
69779;SDS011;57052;55.602;38.096;2023-04-24T11:18:50;11.38;;;3.50;;
69779;SDS011;57052;55.602;38.096;2023-04-24T11:21:28;7.30;;;3.28;;
69779;SDS011;57052;55.602;38.096;2023-04-24T11:23:57;4.47;;;2.97;;
69779;SDS011;57052;55.602;38.096;2023-04-24T11:26:23;5.60;;;2.75;;
69779;SDS011;57052;55.602;38.096;2023-04-24T11:29:05;7.60;;;3.10;;
69779;SDS011;57052;55.602;38.096;2023-04-24T11:31:36;7.35;;;3.05;;
69779;SDS011;57052;55.602;38.096;2023-04-24T11:34:09;4.85;;;2.97;;
69779;SDS011;57052;55.602;38.096;2023-04-24T11:36:38;5.93;;;3.35;;
69779;SDS011;57052;55.602;38.096;2023-04-24T11:39:05;6.13;;;3.22;;
69779;SDS011;57052;55.602;38.096;2023-04-24T11:41:32;11.05;;;3.78;;
69779;SDS011;57052;55.602;38.096;2023-04-24T11:43:59;4.60;;;2.80;;
69779;SDS011;57052;55.602;38.096;2023-04-24T11:46:28;8.20;;;3.33;;
69779;SDS011;57052;55.602;38.096;2023-04-24T11:48:56;8.05;;;3.42;;
69779;SDS011;57052;55.602;38.096;2023-04-24T11:51:24;8.80;;;3.47;;
69779;SDS011;57052;55.602;38.096;2023-04-24T11:53:55;5.88;;;3.20;;
69779;SDS011;57052;55.602;38.096;2023-04-24T11:56:22;3.53;;;2.58;;
69779;SDS011;57052;55.602;38.096;2023-04-24T11:58:48;7.15;;;2.80;;
69779;SDS011;57052;55.602;38.096;2023-04-24T12:01:18;5.53;;;2.90;;
69779;SDS011;57052;55.602;38.096;2023-04-24T12:03:47;4.95;;;2.90;;
69779;SDS011;57052;55.602;38.096;2023-04-24T12:06:13;6.10;;;2.70;;
69779;SDS011;57052;55.602;38.096;2023-04-24T12:08:39;5.93;;;2.83;;
69779;SDS011;57052;55.602;38.096;2023-04-24T12:11:05;8.73;;;3.30;;
69779;SDS011;57052;55.602;38.096;2023-04-24T12:13:35;9.73;;;4.20;;
69779;SDS011;57052;55.602;38.096;2023-04-24T12:16:02;8.27;;;3.50;;
69779;SDS011;57052;55.602;38.096;2023-04-24T12:18:29;5.22;;;2.90;;
69779;SDS011;57052;55.602;38.096;2023-04-24T12:20:55;4.40;;;3.05;;
69779;SDS011;57052;55.602;38.096;2023-04-24T12:23:36;4.72;;;3.33;;
69779;SDS011;57052;55.602;38.096;2023-04-24T12:26:04;7.70;;;2.78;;
69779;SDS011;57052;55.602;38.096;2023-04-24T12:28:36;8.65;;;3.30;;
69779;SDS011;57052;55.602;38.096;2023-04-24T12:31:03;6.32;;;3.20;;
69779;SDS011;57052;55.602;38.096;2023-04-24T12:33:32;6.80;;;3.78;;
69779;SDS011;57052;55.602;38.096;2023-04-24T12:36:00;6.95;;;3.45;;
69779;SDS011;57052;55.602;38.096;2023-04-24T12:38:26;6.28;;;3.35;;
69779;SDS011;57052;55.602;38.096;2023-04-24T12:41:01;7.55;;;3.35;;
69779;SDS011;57052;55.602;38.096;2023-04-24T12:43:30;10.57;;;3.20;;
69779;SDS011;57052;55.602;38.096;2023-04-24T12:45:57;4.60;;;2.85;;
69779;SDS011;57052;55.602;38.096;2023-04-24T12:48:24;13.80;;;3.63;;
69779;SDS011;57052;55.602;38.096;2023-04-24T12:50:51;4.85;;;3.30;;
69779;SDS011;57052;55.602;38.096;2023-04-24T12:53:17;7.15;;;3.40;;
69779;SDS011;57052;55.602;38.096;2023-04-24T12:55:42;8.70;;;2.90;;
69779;SDS011;57052;55.602;38.096;2023-04-24T12:58:09;4.97;;;3.00;;
69779;SDS011;57052;55.602;38.096;2023-04-24T13:00:35;8.80;;;3.03;;
69779;SDS011;57052;55.602;38.096;2023-04-24T13:03:02;9.70;;;3.10;;
69779;SDS011;57052;55.602;38.096;2023-04-24T13:05:28;4.15;;;2.80;;
69779;SDS011;57052;55.602;38.096;2023-04-24T13:07:53;5.13;;;2.88;;
69779;SDS011;57052;55.602;38.096;2023-04-24T13:10:19;6.63;;;3.40;;
69779;SDS011;57052;55.602;38.096;2023-04-24T13:12:45;8.23;;;3.03;;
69779;SDS011;57052;55.602;38.096;2023-04-24T13:15:11;5.55;;;3.30;;
69779;SDS011;57052;55.602;38.096;2023-04-24T13:17:37;5.18;;;3.00;;
69779;SDS011;57052;55.602;38.096;2023-04-24T13:20:03;4.68;;;2.70;;
69779;SDS011;57052;55.602;38.096;2023-04-24T13:22:30;6.70;;;2.88;;
69779;SDS011;57052;55.602;38.096;2023-04-24T13:24:56;5.65;;;2.90;;
69779;SDS011;57052;55.602;38.096;2023-04-24T13:27:22;7.03;;;3.50;;
69779;SDS011;57052;55.602;38.096;2023-04-24T13:29:48;5.38;;;2.80;;
69779;SDS011;57052;55.602;38.096;2023-04-24T13:32:13;7.90;;;3.72;;
69779;SDS011;57052;55.602;38.096;2023-04-24T13:34:39;6.97;;;3.00;;
69779;SDS011;57052;55.602;38.096;2023-04-24T13:37:05;3.50;;;2.63;;
69779;SDS011;57052;55.602;38.096;2023-04-24T13:39:30;4.70;;;2.67;;
69779;SDS011;57052;55.602;38.096;2023-04-24T13:41:56;6.60;;;3.15;;
69779;SDS011;57052;55.602;38.096;2023-04-24T13:44:22;6.22;;;3.13;;
69779;SDS011;57052;55.602;38.096;2023-04-24T13:46:49;6.18;;;3.17;;
69779;SDS011;57052;55.602;38.096;2023-04-24T13:49:17;13.40;;;2.80;;
69779;SDS011;57052;55.602;38.096;2023-04-24T13:51:44;5.60;;;2.90;;
69779;SDS011;57052;55.602;38.096;2023-04-24T13:54:10;5.72;;;3.00;;
69779;SDS011;57052;55.602;38.096;2023-04-24T13:56:36;8.30;;;3.72;;
69779;SDS011;57052;55.602;38.096;2023-04-24T13:59:02;5.22;;;3.17;;
69779;SDS011;57052;55.602;38.096;2023-04-24T14:01:28;5.22;;;3.30;;
69779;SDS011;57052;55.602;38.096;2023-04-24T14:03:54;6.72;;;3.08;;
69779;SDS011;57052;55.602;38.096;2023-04-24T14:06:21;6.93;;;3.15;;
69779;SDS011;57052;55.602;38.096;2023-04-24T14:08:48;6.85;;;3.20;;
69779;SDS011;57052;55.602;38.096;2023-04-24T14:11:15;6.28;;;2.92;;
69779;SDS011;57052;55.602;38.096;2023-04-24T14:13:41;8.90;;;4.28;;
69779;SDS011;57052;55.602;38.096;2023-04-24T14:16:09;7.55;;;3.20;;
69779;SDS011;57052;55.602;38.096;2023-04-24T14:18:35;7.45;;;3.30;;
69779;SDS011;57052;55.602;38.096;2023-04-24T14:21:01;5.00;;;2.60;;
69779;SDS011;57052;55.602;38.096;2023-04-24T14:23:28;7.78;;;2.88;;
69779;SDS011;57052;55.602;38.096;2023-04-24T14:25:54;12.18;;;3.20;;